KLWT

Lewistown Municipal Airport

Lewistown, Montana, USA
METAR KLWT 230454Z AUTO 11010KT 10SM CLR 06/M04 A3013 RMK AO2 SLP203 T00561039
Observed Flight Rules
Oct-23 @ 04:54 UTC (25 minutes ago) Visual Flight Rules
Wind Visibility Clouds
110° at 10 knots 10 miles
  • Clear skies
Temperatures Readings
Current 6°C / 43°F
Dewpoint -4°C / 25°F
Humidity 49%
Altimeter 30.13" Hg
Pressure 1020.3 hPa
Elevation 1270
METAR KLWT 230454Z AUTO 11010KT 10SM CLR 06/M04 A3013 RMK AO2 SLP203 T00561039
Observed Flight Rules
Oct-23 @ 04:54 UTC
(25 minutes ago)
VFR
Wind Visibility
110° at 10 knots 10 miles
Clouds
  • Clear skies
Temperature Dewpoint
6°C / 43°F -4°C / 25°F
Humidity Altimeter Pressure
49% 30.13" Hg 1020.3 hPa